sensor_id;sensor_type;location;lat;lon;timestamp;temperature;humidity
58447;DHT22;44240;51.840;7.258;2023-02-11T00:01:12;8.60;75.30
58447;DHT22;44240;51.840;7.258;2023-02-11T00:03:38;8.60;75.30
58447;DHT22;44240;51.840;7.258;2023-02-11T00:06:05;8.60;75.30
58447;DHT22;44240;51.840;7.258;2023-02-11T00:08:33;8.60;75.30
58447;DHT22;44240;51.840;7.258;2023-02-11T00:10:59;8.60;75.60
58447;DHT22;44240;51.840;7.258;2023-02-11T00:13:25;8.60;75.60
58447;DHT22;44240;51.840;7.258;2023-02-11T00:15:50;8.60;75.50
58447;DHT22;44240;51.840;7.258;2023-02-11T00:18:16;8.60;75.60
58447;DHT22;44240;51.840;7.258;2023-02-11T00:20:42;8.60;75.60
58447;DHT22;44240;51.840;7.258;2023-02-11T00:23:08;8.60;75.60
58447;DHT22;44240;51.840;7.258;2023-02-11T00:25:38;8.60;75.60
58447;DHT22;44240;51.840;7.258;2023-02-11T00:28:03;8.70;75.50
58447;DHT22;44240;51.840;7.258;2023-02-11T00:30:29;8.70;75.40
58447;DHT22;44240;51.840;7.258;2023-02-11T00:32:54;8.70;75.50
58447;DHT22;44240;51.840;7.258;2023-02-11T00:35:20;8.70;75.50
58447;DHT22;44240;51.840;7.258;2023-02-11T00:37:45;8.70;75.40
58447;DHT22;44240;51.840;7.258;2023-02-11T00:40:11;8.60;75.50
58447;DHT22;44240;51.840;7.258;2023-02-11T00:42:36;8.60;75.60
58447;DHT22;44240;51.840;7.258;2023-02-11T00:45:02;8.60;75.60
58447;DHT22;44240;51.840;7.258;2023-02-11T00:47:28;8.60;75.60
58447;DHT22;44240;51.840;7.258;2023-02-11T00:49:54;8.60;75.60
58447;DHT22;44240;51.840;7.258;2023-02-11T00:52:19;8.60;75.60
58447;DHT22;44240;51.840;7.258;2023-02-11T00:54:45;8.60;75.70
58447;DHT22;44240;51.840;7.258;2023-02-11T00:57:10;8.60;75.80
58447;DHT22;44240;51.840;7.258;2023-02-11T00:59:36;8.60;75.80
58447;DHT22;44240;51.840;7.258;2023-02-11T01:02:01;8.60;75.80
58447;DHT22;44240;51.840;7.258;2023-02-11T01:04:27;8.60;75.80
58447;DHT22;44240;51.840;7.258;2023-02-11T01:06:52;8.60;75.70
58447;DHT22;44240;51.840;7.258;2023-02-11T01:09:18;8.60;75.70
58447;DHT22;44240;51.840;7.258;2023-02-11T01:11:45;8.60;75.50
58447;DHT22;44240;51.840;7.258;2023-02-11T01:14:11;8.60;75.50
58447;DHT22;44240;51.840;7.258;2023-02-11T01:16:37;8.70;75.40
58447;DHT22;44240;51.840;7.258;2023-02-11T01:19:02;8.70;75.40
58447;DHT22;44240;51.840;7.258;2023-02-11T01:21:28;8.70;75.30
58447;DHT22;44240;51.840;7.258;2023-02-11T01:23:53;8.70;75.20
58447;DHT22;44240;51.840;7.258;2023-02-11T01:26:19;8.70;75.10
58447;DHT22;44240;51.840;7.258;2023-02-11T01:28:44;8.70;75.10
58447;DHT22;44240;51.840;7.258;2023-02-11T01:31:10;8.70;75.10
58447;DHT22;44240;51.840;7.258;2023-02-11T01:33:36;8.70;75.20
58447;DHT22;44240;51.840;7.258;2023-02-11T01:36:02;8.60;76.20
58447;DHT22;44240;51.840;7.258;2023-02-11T01:38:29;8.70;75.30
58447;DHT22;44240;51.840;7.258;2023-02-11T01:40:57;8.60;75.30
58447;DHT22;44240;51.840;7.258;2023-02-11T01:43:25;8.70;75.20
58447;DHT22;44240;51.840;7.258;2023-02-11T01:48:34;8.60;75.10
58447;DHT22;44240;51.840;7.258;2023-02-11T01:51:06;8.60;75.20
58447;DHT22;44240;51.840;7.258;2023-02-11T01:53:33;8.60;75.30
58447;DHT22;44240;51.840;7.258;2023-02-11T01:56:19;8.60;75.30
58447;DHT22;44240;51.840;7.258;2023-02-11T01:59:06;8.60;75.40
58447;DHT22;44240;51.840;7.258;2023-02-11T02:01:33;8.50;75.40
58447;DHT22;44240;51.840;7.258;2023-02-11T02:04:00;8.50;75.60
58447;DHT22;44240;51.840;7.258;2023-02-11T02:06:34;8.50;75.50
58447;DHT22;44240;51.840;7.258;2023-02-11T02:09:18;8.60;75.40
58447;DHT22;44240;51.840;7.258;2023-02-11T02:11:44;8.60;75.30
58447;DHT22;44240;51.840;7.258;2023-02-11T02:14:10;8.60;75.20
58447;DHT22;44240;51.840;7.258;2023-02-11T02:16:36;8.60;75.10
58447;DHT22;44240;51.840;7.258;2023-02-11T02:21:55;8.60;75.30
58447;DHT22;44240;51.840;7.258;2023-02-11T02:27:32;8.50;75.20
58447;DHT22;44240;51.840;7.258;2023-02-11T02:30:23;8.50;75.30
58447;DHT22;44240;51.840;7.258;2023-02-11T02:36:03;8.60;75.40
58447;DHT22;44240;51.840;7.258;2023-02-11T02:38:34;8.50;75.30
58447;DHT22;44240;51.840;7.258;2023-02-11T02:41:09;8.50;75.20
58447;DHT22;44240;51.840;7.258;2023-02-11T02:43:38;8.60;75.30
58447;DHT22;44240;51.840;7.258;2023-02-11T02:46:18;8.60;75.10
58447;DHT22;44240;51.840;7.258;2023-02-11T02:48:45;8.60;76.20
58447;DHT22;44240;51.840;7.258;2023-02-11T02:57:19;8.60;75.00
58447;DHT22;44240;51.840;7.258;2023-02-11T03:02:32;8.50;75.30
58447;DHT22;44240;51.840;7.258;2023-02-11T03:08:09;8.50;75.40
58447;DHT22;44240;51.840;7.258;2023-02-11T03:10:40;8.50;75.50
58447;DHT22;44240;51.840;7.258;2023-02-11T03:13:07;8.50;75.50
58447;DHT22;44240;51.840;7.258;2023-02-11T03:15:38;8.50;75.50
58447;DHT22;44240;51.840;7.258;2023-02-11T03:18:08;8.50;75.50
58447;DHT22;44240;51.840;7.258;2023-02-11T03:20:35;8.50;75.50
58447;DHT22;44240;51.840;7.258;2023-02-11T03:23:18;8.50;75.50
58447;DHT22;44240;51.840;7.258;2023-02-11T03:25:51;8.50;75.40
58447;DHT22;44240;51.840;7.258;2023-02-11T03:28:29;8.50;75.40
58447;DHT22;44240;51.840;7.258;2023-02-11T03:31:26;8.50;75.40
58447;DHT22;44240;51.840;7.258;2023-02-11T03:34:22;8.60;75.50
58447;DHT22;44240;51.840;7.258;2023-02-11T03:36:50;8.50;75.60
58447;DHT22;44240;51.840;7.258;2023-02-11T03:39:32;8.50;75.60
58447;DHT22;44240;51.840;7.258;2023-02-11T03:41:59;8.50;75.50
58447;DHT22;44240;51.840;7.258;2023-02-11T03:44:31;8.50;75.50
58447;DHT22;44240;51.840;7.258;2023-02-11T03:46:58;8.50;75.50
58447;DHT22;44240;51.840;7.258;2023-02-11T03:49:26;8.50;75.50
58447;DHT22;44240;51.840;7.258;2023-02-11T03:51:54;8.50;75.60
58447;DHT22;44240;51.840;7.258;2023-02-11T03:54:25;8.40;75.60
58447;DHT22;44240;51.840;7.258;2023-02-11T03:56:55;8.50;75.80
58447;DHT22;44240;51.840;7.258;2023-02-11T03:59:21;8.40;75.90
58447;DHT22;44240;51.840;7.258;2023-02-11T04:01:47;8.40;75.90
58447;DHT22;44240;51.840;7.258;2023-02-11T04:04:13;8.40;76.00
58447;DHT22;44240;51.840;7.258;2023-02-11T04:06:38;8.40;76.00
58447;DHT22;44240;51.840;7.258;2023-02-11T04:09:04;8.40;76.00
58447;DHT22;44240;51.840;7.258;2023-02-11T04:11:30;8.40;76.00
58447;DHT22;44240;51.840;7.258;2023-02-11T04:13:55;8.40;76.00
58447;DHT22;44240;51.840;7.258;2023-02-11T04:16:21;8.40;76.10
58447;DHT22;44240;51.840;7.258;2023-02-11T04:18:46;8.40;76.00
58447;DHT22;44240;51.840;7.258;2023-02-11T04:21:12;8.40;76.00
58447;DHT22;44240;51.840;7.258;2023-02-11T04:23:37;8.40;76.00
58447;DHT22;44240;51.840;7.258;2023-02-11T04:26:03;8.40;76.10
58447;DHT22;44240;51.840;7.258;2023-02-11T04:28:29;8.30;76.10
58447;DHT22;44240;51.840;7.258;2023-02-11T04:30:55;8.30;76.20
58447;DHT22;44240;51.840;7.258;2023-02-11T04:33:21;8.30;76.50
58447;DHT22;44240;51.840;7.258;2023-02-11T04:35:47;8.20;76.60
58447;DHT22;44240;51.840;7.258;2023-02-11T04:38:12;8.30;76.70
58447;DHT22;44240;51.840;7.258;2023-02-11T04:40:38;8.30;76.50
58447;DHT22;44240;51.840;7.258;2023-02-11T04:43:04;8.30;76.30
58447;DHT22;44240;51.840;7.258;2023-02-11T04:45:29;8.30;76.20
58447;DHT22;44240;51.840;7.258;2023-02-11T04:47:55;8.30;76.30
58447;DHT22;44240;51.840;7.258;2023-02-11T04:50:20;8.30;76.40
58447;DHT22;44240;51.840;7.258;2023-02-11T04:52:46;8.30;76.40
58447;DHT22;44240;51.840;7.258;2023-02-11T04:55:12;8.30;76.40
58447;DHT22;44240;51.840;7.258;2023-02-11T04:57:37;8.30;76.40
58447;DHT22;44240;51.840;7.258;2023-02-11T05:00:04;8.30;76.40
58447;DHT22;44240;51.840;7.258;2023-02-11T05:02:29;8.30;76.40
58447;DHT22;44240;51.840;7.258;2023-02-11T05:04:55;8.30;76.40
58447;DHT22;44240;51.840;7.258;2023-02-11T05:07:20;8.30;76.50
58447;DHT22;44240;51.840;7.258;2023-02-11T05:09:46;8.30;76.40
58447;DHT22;44240;51.840;7.258;2023-02-11T05:12:11;8.30;76.60
58447;DHT22;44240;51.840;7.258;2023-02-11T05:14:37;8.30;76.70
58447;DHT22;44240;51.840;7.258;2023-02-11T05:17:02;8.30;76.70
58447;DHT22;44240;51.840;7.258;2023-02-11T05:19:28;8.30;76.70
58447;DHT22;44240;51.840;7.258;2023-02-11T05:21:55;8.30;76.80
58447;DHT22;44240;51.840;7.258;2023-02-11T05:24:20;8.20;76.90
58447;DHT22;44240;51.840;7.258;2023-02-11T05:26:46;8.30;76.90
58447;DHT22;44240;51.840;7.258;2023-02-11T05:29:11;8.30;77.00
58447;DHT22;44240;51.840;7.258;2023-02-11T05:31:37;8.30;77.10
58447;DHT22;44240;51.840;7.258;2023-02-11T05:34:02;8.20;77.10
58447;DHT22;44240;51.840;7.258;2023-02-11T05:36:29;8.30;77.20
58447;DHT22;44240;51.840;7.258;2023-02-11T05:38:54;8.30;77.20
58447;DHT22;44240;51.840;7.258;2023-02-11T05:41:20;8.20;77.20
58447;DHT22;44240;51.840;7.258;2023-02-11T05:43:47;8.20;77.30
58447;DHT22;44240;51.840;7.258;2023-02-11T05:46:16;8.20;77.40
58447;DHT22;44240;51.840;7.258;2023-02-11T05:48:42;8.20;78.00
58447;DHT22;44240;51.840;7.258;2023-02-11T05:51:07;8.20;78.10
58447;DHT22;44240;51.840;7.258;2023-02-11T05:53:33;8.20;78.10
58447;DHT22;44240;51.840;7.258;2023-02-11T05:55:59;8.20;78.10
58447;DHT22;44240;51.840;7.258;2023-02-11T05:58:24;8.20;78.00
58447;DHT22;44240;51.840;7.258;2023-02-11T06:00:50;8.20;78.00
58447;DHT22;44240;51.840;7.258;2023-02-11T06:03:15;8.30;78.00
58447;DHT22;44240;51.840;7.258;2023-02-11T06:05:44;8.30;77.80
58447;DHT22;44240;51.840;7.258;2023-02-11T06:08:10;8.30;77.80
58447;DHT22;44240;51.840;7.258;2023-02-11T06:10:36;8.30;77.90
58447;DHT22;44240;51.840;7.258;2023-02-11T06:13:02;8.30;78.00
58447;DHT22;44240;51.840;7.258;2023-02-11T06:15:27;8.30;78.20
58447;DHT22;44240;51.840;7.258;2023-02-11T06:17:53;8.20;78.30
58447;DHT22;44240;51.840;7.258;2023-02-11T06:20:19;8.20;78.30
58447;DHT22;44240;51.840;7.258;2023-02-11T06:22:44;8.30;78.30
58447;DHT22;44240;51.840;7.258;2023-02-11T06:25:10;8.30;78.20
58447;DHT22;44240;51.840;7.258;2023-02-11T06:27:36;8.30;78.30
58447;DHT22;44240;51.840;7.258;2023-02-11T06:30:03;8.30;78.30
58447;DHT22;44240;51.840;7.258;2023-02-11T06:32:29;8.20;78.50
58447;DHT22;44240;51.840;7.258;2023-02-11T06:34:54;8.20;78.60
58447;DHT22;44240;51.840;7.258;2023-02-11T06:37:20;8.20;78.70
58447;DHT22;44240;51.840;7.258;2023-02-11T06:39:46;8.20;78.70
58447;DHT22;44240;51.840;7.258;2023-02-11T06:42:11;8.20;78.80
58447;DHT22;44240;51.840;7.258;2023-02-11T06:44:37;8.20;78.80
58447;DHT22;44240;51.840;7.258;2023-02-11T06:47:03;8.30;78.90
58447;DHT22;44240;51.840;7.258;2023-02-11T06:49:28;8.20;78.80
58447;DHT22;44240;51.840;7.258;2023-02-11T06:51:54;8.20;78.80
58447;DHT22;44240;51.840;7.258;2023-02-11T06:54:19;8.30;78.80
58447;DHT22;44240;51.840;7.258;2023-02-11T06:56:45;8.30;78.80
58447;DHT22;44240;51.840;7.258;2023-02-11T06:59:18;8.30;78.80
58447;DHT22;44240;51.840;7.258;2023-02-11T07:01:45;8.30;78.80
58447;DHT22;44240;51.840;7.258;2023-02-11T07:04:11;8.30;78.90
58447;DHT22;44240;51.840;7.258;2023-02-11T07:06:39;8.20;79.10
58447;DHT22;44240;51.840;7.258;2023-02-11T07:09:04;8.30;79.10
58447;DHT22;44240;51.840;7.258;2023-02-11T07:11:30;8.20;79.10
58447;DHT22;44240;51.840;7.258;2023-02-11T07:14:00;8.20;79.20
58447;DHT22;44240;51.840;7.258;2023-02-11T07:16:26;8.20;79.30
58447;DHT22;44240;51.840;7.258;2023-02-11T07:18:52;8.30;79.40
58447;DHT22;44240;51.840;7.258;2023-02-11T07:21:20;8.20;79.40
58447;DHT22;44240;51.840;7.258;2023-02-11T07:23:46;8.20;79.60
58447;DHT22;44240;51.840;7.258;2023-02-11T07:26:15;8.20;79.60
58447;DHT22;44240;51.840;7.258;2023-02-11T07:28:42;8.20;79.70
58447;DHT22;44240;51.840;7.258;2023-02-11T07:31:10;8.20;79.70
58447;DHT22;44240;51.840;7.258;2023-02-11T07:33:36;8.20;79.90
58447;DHT22;44240;51.840;7.258;2023-02-11T07:36:03;8.20;79.80
58447;DHT22;44240;51.840;7.258;2023-02-11T07:38:31;8.20;79.80
58447;DHT22;44240;51.840;7.258;2023-02-11T07:41:01;8.30;79.70
58447;DHT22;44240;51.840;7.258;2023-02-11T07:43:27;8.30;79.50
58447;DHT22;44240;51.840;7.258;2023-02-11T07:45:53;8.30;79.40
58447;DHT22;44240;51.840;7.258;2023-02-11T07:48:18;8.40;79.40
58447;DHT22;44240;51.840;7.258;2023-02-11T07:50:44;8.40;79.40
58447;DHT22;44240;51.840;7.258;2023-02-11T07:53:09;8.40;79.50
58447;DHT22;44240;51.840;7.258;2023-02-11T07:55:35;8.30;79.50
58447;DHT22;44240;51.840;7.258;2023-02-11T07:58:00;8.30;79.70
58447;DHT22;44240;51.840;7.258;2023-02-11T08:00:26;8.30;79.80
58447;DHT22;44240;51.840;7.258;2023-02-11T08:02:52;8.40;79.90
58447;DHT22;44240;51.840;7.258;2023-02-11T08:05:18;8.40;79.80
58447;DHT22;44240;51.840;7.258;2023-02-11T08:07:44;8.40;79.80
58447;DHT22;44240;51.840;7.258;2023-02-11T08:10:10;8.40;79.60
58447;DHT22;44240;51.840;7.258;2023-02-11T08:12:35;8.50;79.50
58447;DHT22;44240;51.840;7.258;2023-02-11T08:15:01;8.50;79.50
58447;DHT22;44240;51.840;7.258;2023-02-11T08:17:27;8.50;79.50
58447;DHT22;44240;51.840;7.258;2023-02-11T08:19:52;8.50;79.50
58447;DHT22;44240;51.840;7.258;2023-02-11T08:22:18;8.50;79.50
58447;DHT22;44240;51.840;7.258;2023-02-11T08:24:43;8.50;79.50
58447;DHT22;44240;51.840;7.258;2023-02-11T08:27:09;8.50;79.50
58447;DHT22;44240;51.840;7.258;2023-02-11T08:29:34;8.50;79.80
58447;DHT22;44240;51.840;7.258;2023-02-11T08:32:00;8.40;80.10
58447;DHT22;44240;51.840;7.258;2023-02-11T08:34:27;8.40;80.30
58447;DHT22;44240;51.840;7.258;2023-02-11T08:36:52;8.40;80.30
58447;DHT22;44240;51.840;7.258;2023-02-11T08:39:20;8.50;80.30
58447;DHT22;44240;51.840;7.258;2023-02-11T08:41:48;8.50;80.20
58447;DHT22;44240;51.840;7.258;2023-02-11T08:44:14;8.50;80.20
58447;DHT22;44240;51.840;7.258;2023-02-11T08:46:39;8.50;80.10
58447;DHT22;44240;51.840;7.258;2023-02-11T08:49:05;8.60;80.00
58447;DHT22;44240;51.840;7.258;2023-02-11T08:51:31;8.60;79.90
58447;DHT22;44240;51.840;7.258;2023-02-11T08:53:58;8.60;80.10
58447;DHT22;44240;51.840;7.258;2023-02-11T08:56:24;8.60;80.10
58447;DHT22;44240;51.840;7.258;2023-02-11T08:58:50;8.60;80.10
58447;DHT22;44240;51.840;7.258;2023-02-11T09:01:22;8.60;80.10
58447;DHT22;44240;51.840;7.258;2023-02-11T09:03:51;8.60;80.10
58447;DHT22;44240;51.840;7.258;2023-02-11T09:06:17;8.70;80.10
58447;DHT22;44240;51.840;7.258;2023-02-11T09:08:45;8.70;80.00
58447;DHT22;44240;51.840;7.258;2023-02-11T09:11:11;8.70;79.80
58447;DHT22;44240;51.840;7.258;2023-02-11T09:13:39;8.80;79.90
58447;DHT22;44240;51.840;7.258;2023-02-11T09:16:05;8.80;80.80
58447;DHT22;44240;51.840;7.258;2023-02-11T09:18:31;8.80;79.70
58447;DHT22;44240;51.840;7.258;2023-02-11T09:21:05;8.80;80.90
58447;DHT22;44240;51.840;7.258;2023-02-11T09:23:30;8.80;79.80
58447;DHT22;44240;51.840;7.258;2023-02-11T09:26:10;8.80;79.70
58447;DHT22;44240;51.840;7.258;2023-02-11T09:28:36;8.90;79.70
58447;DHT22;44240;51.840;7.258;2023-02-11T09:31:22;8.90;79.80
58447;DHT22;44240;51.840;7.258;2023-02-11T09:33:51;8.90;79.60
58447;DHT22;44240;51.840;7.258;2023-02-11T09:36:19;8.90;79.60
58447;DHT22;44240;51.840;7.258;2023-02-11T09:38:46;8.90;79.60
58447;DHT22;44240;51.840;7.258;2023-02-11T09:44:15;9.00;79.50
58447;DHT22;44240;51.840;7.258;2023-02-11T09:46:45;8.90;79.80
58447;DHT22;44240;51.840;7.258;2023-02-11T09:49:18;8.90;79.80
58447;DHT22;44240;51.840;7.258;2023-02-11T09:51:48;8.90;79.90
58447;DHT22;44240;51.840;7.258;2023-02-11T09:54:22;8.90;79.80
58447;DHT22;44240;51.840;7.258;2023-02-11T09:56:51;8.90;79.80
58447;DHT22;44240;51.840;7.258;2023-02-11T09:59:17;9.00;79.80
58447;DHT22;44240;51.840;7.258;2023-02-11T10:01:47;9.00;79.90
58447;DHT22;44240;51.840;7.258;2023-02-11T10:06:55;9.00;79.90
58447;DHT22;44240;51.840;7.258;2023-02-11T10:09:31;9.00;79.80
58447;DHT22;44240;51.840;7.258;2023-02-11T10:20:46;9.20;79.70
58447;DHT22;44240;51.840;7.258;2023-02-11T10:23:20;9.20;79.80
58447;DHT22;44240;51.840;7.258;2023-02-11T10:25:50;9.10;80.00
58447;DHT22;44240;51.840;7.258;2023-02-11T10:28:29;9.20;80.00
58447;DHT22;44240;51.840;7.258;2023-02-11T10:31:01;9.20;80.00
58447;DHT22;44240;51.840;7.258;2023-02-11T10:36:05;9.20;79.80
58447;DHT22;44240;51.840;7.258;2023-02-11T10:38:31;9.20;79.90
58447;DHT22;44240;51.840;7.258;2023-02-11T10:40:58;9.30;80.00
58447;DHT22;44240;51.840;7.258;2023-02-11T10:43:27;9.30;80.10
58447;DHT22;44240;51.840;7.258;2023-02-11T10:45:55;9.30;80.00
58447;DHT22;44240;51.840;7.258;2023-02-11T10:48:49;9.30;79.90
58447;DHT22;44240;51.840;7.258;2023-02-11T10:51:25;9.40;79.90
58447;DHT22;44240;51.840;7.258;2023-02-11T10:56:30;9.40;80.20
58447;DHT22;44240;51.840;7.258;2023-02-11T10:59:06;9.40;80.20
58447;DHT22;44240;51.840;7.258;2023-02-11T11:01:49;9.40;80.00
58447;DHT22;44240;51.840;7.258;2023-02-11T11:04:42;9.40;79.90
58447;DHT22;44240;51.840;7.258;2023-02-11T11:07:21;9.50;79.80
58447;DHT22;44240;51.840;7.258;2023-02-11T11:09:55;9.50;80.00
58447;DHT22;44240;51.840;7.258;2023-02-11T11:12:28;9.50;80.00
58447;DHT22;44240;51.840;7.258;2023-02-11T11:14:57;9.50;80.00
58447;DHT22;44240;51.840;7.258;2023-02-11T11:17:23;9.60;80.00
58447;DHT22;44240;51.840;7.258;2023-02-11T11:22:38;9.60;79.80
58447;DHT22;44240;51.840;7.258;2023-02-11T11:25:04;9.60;79.90
58447;DHT22;44240;51.840;7.258;2023-02-11T11:27:30;9.60;79.90
58447;DHT22;44240;51.840;7.258;2023-02-11T11:29:55;9.60;79.70
58447;DHT22;44240;51.840;7.258;2023-02-11T11:32:27;9.60;79.80
58447;DHT22;44240;51.840;7.258;2023-02-11T11:35:00;9.60;79.90
58447;DHT22;44240;51.840;7.258;2023-02-11T11:37:28;9.60;79.90
58447;DHT22;44240;51.840;7.258;2023-02-11T11:42:30;9.70;80.10
58447;DHT22;44240;51.840;7.258;2023-02-11T11:44:59;9.70;79.80
58447;DHT22;44240;51.840;7.258;2023-02-11T11:47:30;9.70;79.80
58447;DHT22;44240;51.840;7.258;2023-02-11T11:56:04;9.80;79.80
58447;DHT22;44240;51.840;7.258;2023-02-11T11:58:32;9.80;79.70
58447;DHT22;44240;51.840;7.258;2023-02-11T12:12:05;9.80;79.80
58447;DHT22;44240;51.840;7.258;2023-02-11T12:15:30;9.80;79.90
58447;DHT22;44240;51.840;7.258;2023-02-11T12:21:07;9.80;80.00
58447;DHT22;44240;51.840;7.258;2023-02-11T12:29:37;10.00;79.70
58447;DHT22;44240;51.840;7.258;2023-02-11T12:35:25;9.90;79.80
58447;DHT22;44240;51.840;7.258;2023-02-11T12:40:33;10.00;79.60
58447;DHT22;44240;51.840;7.258;2023-02-11T12:43:28;10.00;79.40
58447;DHT22;44240;51.840;7.258;2023-02-11T12:51:39;10.10;79.30
58447;DHT22;44240;51.840;7.258;2023-02-11T12:59:33;10.20;79.00
58447;DHT22;44240;51.840;7.258;2023-02-11T13:02:11;10.20;78.90
58447;DHT22;44240;51.840;7.258;2023-02-11T13:04:43;10.30;78.80
58447;DHT22;44240;51.840;7.258;2023-02-11T13:07:25;10.30;78.50
58447;DHT22;44240;51.840;7.258;2023-02-11T13:12:42;10.40;78.40
58447;DHT22;44240;51.840;7.258;2023-02-11T13:15:28;10.40;78.40
58447;DHT22;44240;51.840;7.258;2023-02-11T13:23:45;10.40;78.40
58447;DHT22;44240;51.840;7.258;2023-02-11T13:30:11;10.50;78.10
58447;DHT22;44240;51.840;7.258;2023-02-11T13:35:33;10.50;78.50
58447;DHT22;44240;51.840;7.258;2023-02-11T13:38:01;10.40;78.40
58447;DHT22;44240;51.840;7.258;2023-02-11T13:43:01;10.40;78.40
58447;DHT22;44240;51.840;7.258;2023-02-11T13:46:02;10.40;78.40
58447;DHT22;44240;51.840;7.258;2023-02-11T13:48:31;10.40;78.40
58447;DHT22;44240;51.840;7.258;2023-02-11T13:51:01;10.50;78.50
58447;DHT22;44240;51.840;7.258;2023-02-11T13:53:28;10.60;78.20
58447;DHT22;44240;51.840;7.258;2023-02-11T13:56:11;10.60;78.00
58447;DHT22;44240;51.840;7.258;2023-02-11T13:58:49;10.60;78.70
58447;DHT22;44240;51.840;7.258;2023-02-11T14:01:43;10.60;77.70
58447;DHT22;44240;51.840;7.258;2023-02-11T14:08:10;10.70;77.70
58447;DHT22;44240;51.840;7.258;2023-02-11T14:11:00;10.70;77.60
58447;DHT22;44240;51.840;7.258;2023-02-11T14:13:30;10.70;77.70
58447;DHT22;44240;51.840;7.258;2023-02-11T14:16:19;10.70;77.50
58447;DHT22;44240;51.840;7.258;2023-02-11T14:26:55;10.70;77.50
58447;DHT22;44240;51.840;7.258;2023-02-11T14:32:33;10.80;77.20
58447;DHT22;44240;51.840;7.258;2023-02-11T14:38:01;10.80;77.40
58447;DHT22;44240;51.840;7.258;2023-02-11T14:41:18;10.80;77.20
58447;DHT22;44240;51.840;7.258;2023-02-11T14:43:26;10.80;76.90
58447;DHT22;44240;51.840;7.258;2023-02-11T14:45:54;10.80;77.00
58447;DHT22;44240;51.840;7.258;2023-02-11T14:48:26;10.80;77.00
58447;DHT22;44240;51.840;7.258;2023-02-11T14:51:17;10.90;76.80
58447;DHT22;44240;51.840;7.258;2023-02-11T14:53:47;10.90;76.80
58447;DHT22;44240;51.840;7.258;2023-02-11T14:56:19;10.90;76.90
58447;DHT22;44240;51.840;7.258;2023-02-11T14:58:47;10.90;76.80
58447;DHT22;44240;51.840;7.258;2023-02-11T15:01:26;10.80;76.70
58447;DHT22;44240;51.840;7.258;2023-02-11T15:04:04;10.90;77.80
58447;DHT22;44240;51.840;7.258;2023-02-11T15:06:38;10.80;76.70
58447;DHT22;44240;51.840;7.258;2023-02-11T15:09:15;10.80;76.90
58447;DHT22;44240;51.840;7.258;2023-02-11T15:11:42;10.80;76.90
58447;DHT22;44240;51.840;7.258;2023-02-11T15:16:49;10.80;76.90
58447;DHT22;44240;51.840;7.258;2023-02-11T15:19:33;10.90;77.00
58447;DHT22;44240;51.840;7.258;2023-02-11T15:22:03;10.90;76.80
58447;DHT22;44240;51.840;7.258;2023-02-11T15:24:32;10.80;76.90
58447;DHT22;44240;51.840;7.258;2023-02-11T15:27:09;10.80;77.00
58447;DHT22;44240;51.840;7.258;2023-02-11T15:29:42;10.90;77.10
58447;DHT22;44240;51.840;7.258;2023-02-11T15:34:34;10.90;76.80
58447;DHT22;44240;51.840;7.258;2023-02-11T15:37:02;10.90;76.80
58447;DHT22;44240;51.840;7.258;2023-02-11T15:39:40;10.90;76.80
58447;DHT22;44240;51.840;7.258;2023-02-11T15:42:24;10.90;76.80
58447;DHT22;44240;51.840;7.258;2023-02-11T15:47:47;10.90;76.80
58447;DHT22;44240;51.840;7.258;2023-02-11T15:50:30;10.90;76.90
58447;DHT22;44240;51.840;7.258;2023-02-11T15:53:00;10.90;76.90
58447;DHT22;44240;51.840;7.258;2023-02-11T15:55:28;10.90;76.80
58447;DHT22;44240;51.840;7.258;2023-02-11T15:57:58;10.90;76.80
58447;DHT22;44240;51.840;7.258;2023-02-11T16:00:31;10.90;76.80
58447;DHT22;44240;51.840;7.258;2023-02-11T16:02:58;10.90;76.80
58447;DHT22;44240;51.840;7.258;2023-02-11T16:05:28;10.90;76.80
58447;DHT22;44240;51.840;7.258;2023-02-11T16:07:55;10.90;76.80
58447;DHT22;44240;51.840;7.258;2023-02-11T16:10:33;10.90;76.50
58447;DHT22;44240;51.840;7.258;2023-02-11T16:18:24;11.00;76.30
58447;DHT22;44240;51.840;7.258;2023-02-11T16:20:51;11.00;76.40
58447;DHT22;44240;51.840;7.258;2023-02-11T16:23:30;10.90;76.60
58447;DHT22;44240;51.840;7.258;2023-02-11T16:26:19;10.90;76.60
58447;DHT22;44240;51.840;7.258;2023-02-11T16:28:45;10.90;76.70
58447;DHT22;44240;51.840;7.258;2023-02-11T16:31:11;10.90;76.60
58447;DHT22;44240;51.840;7.258;2023-02-11T16:33:37;10.90;76.70
58447;DHT22;44240;51.840;7.258;2023-02-11T16:36:11;10.90;76.50
58447;DHT22;44240;51.840;7.258;2023-02-11T16:38:37;10.90;76.50
58447;DHT22;44240;51.840;7.258;2023-02-11T16:41:03;10.90;76.60
58447;DHT22;44240;51.840;7.258;2023-02-11T16:43:28;10.90;76.70
58447;DHT22;44240;51.840;7.258;2023-02-11T16:45:54;10.90;76.60
58447;DHT22;44240;51.840;7.258;2023-02-11T16:48:20;10.90;76.50
58447;DHT22;44240;51.840;7.258;2023-02-11T16:50:48;10.90;76.50
58447;DHT22;44240;51.840;7.258;2023-02-11T16:53:20;10.90;76.50
58447;DHT22;44240;51.840;7.258;2023-02-11T16:55:46;10.90;76.40
58447;DHT22;44240;51.840;7.258;2023-02-11T16:58:12;10.90;76.50
58447;DHT22;44240;51.840;7.258;2023-02-11T17:00:38;10.90;76.50
58447;DHT22;44240;51.840;7.258;2023-02-11T17:03:09;10.80;76.50
58447;DHT22;44240;51.840;7.258;2023-02-11T17:05:35;10.80;76.60
58447;DHT22;44240;51.840;7.258;2023-02-11T17:08:01;10.80;76.70
58447;DHT22;44240;51.840;7.258;2023-02-11T17:10:28;10.80;76.70
58447;DHT22;44240;51.840;7.258;2023-02-11T17:12:55;10.80;76.70
58447;DHT22;44240;51.840;7.258;2023-02-11T17:15:20;10.80;76.70
58447;DHT22;44240;51.840;7.258;2023-02-11T17:17:46;10.90;76.70
58447;DHT22;44240;51.840;7.258;2023-02-11T17:20:13;10.90;76.60
58447;DHT22;44240;51.840;7.258;2023-02-11T17:22:39;10.90;76.50
58447;DHT22;44240;51.840;7.258;2023-02-11T17:25:05;10.90;76.40
58447;DHT22;44240;51.840;7.258;2023-02-11T17:27:31;10.90;76.40
58447;DHT22;44240;51.840;7.258;2023-02-11T17:29:56;10.90;76.30
58447;DHT22;44240;51.840;7.258;2023-02-11T17:32:22;10.90;76.30
58447;DHT22;44240;51.840;7.258;2023-02-11T17:34:47;10.90;76.40
58447;DHT22;44240;51.840;7.258;2023-02-11T17:37:13;10.90;76.40
58447;DHT22;44240;51.840;7.258;2023-02-11T17:39:39;10.90;76.40
58447;DHT22;44240;51.840;7.258;2023-02-11T17:42:05;10.90;76.40
58447;DHT22;44240;51.840;7.258;2023-02-11T17:44:32;10.90;76.40
58447;DHT22;44240;51.840;7.258;2023-02-11T17:46:57;10.90;76.30
58447;DHT22;44240;51.840;7.258;2023-02-11T17:49:23;10.90;76.40
58447;DHT22;44240;51.840;7.258;2023-02-11T17:51:49;10.90;76.40
58447;DHT22;44240;51.840;7.258;2023-02-11T17:54:19;10.90;76.30
58447;DHT22;44240;51.840;7.258;2023-02-11T17:56:45;10.90;76.10
58447;DHT22;44240;51.840;7.258;2023-02-11T17:59:12;10.90;76.20
58447;DHT22;44240;51.840;7.258;2023-02-11T18:01:39;10.90;76.20
58447;DHT22;44240;51.840;7.258;2023-02-11T18:04:05;10.90;76.20
58447;DHT22;44240;51.840;7.258;2023-02-11T18:06:32;10.90;76.10
58447;DHT22;44240;51.840;7.258;2023-02-11T18:08:58;10.90;76.10
58447;DHT22;44240;51.840;7.258;2023-02-11T18:11:27;10.90;76.10
58447;DHT22;44240;51.840;7.258;2023-02-11T18:13:55;10.90;76.20
58447;DHT22;44240;51.840;7.258;2023-02-11T18:16:22;10.90;76.30